Forest fire From: 18-06-2018 11:00 Until: 19-06-2018 10:14 warning for: Forest fire Level: Yellow info button
suomi:
Metsäpalovaroitus on voimassa.

svenska:
Varning för skogsbrand gäller.

english:
A forest fire warning is in force. 


Thunder radar more information blitzortung!


Löydät sääaseman tiedot myös:

European Weather Network

Finland Weather Exchange

Weather Underground

AWEKAS



Weather Underground säähistoriasivu

Päivittäin yhteenveto Helmikuu 24, 2017 Yksiköt:  Metriset    Englantilaiset   Molemmat
« Edellinen Päivä
Seuraava Päivä »
Päivittäin Viikoittain Kuukausittain Vuosittain Mukautettu
  Korkea: Matala: Keskiarvo:
Lämpötila: -17.8 °C -23.2 °C -22.1 °C
Kastepiste: -17.8 °C -23.8 °C -22.9 °C
Kosteus: Humidity % 86 % 89 %
Tuulen nopeus: 0 km/h 0 km/h 8.7 km/h
Tuulenpuuska: 0 km/h - -
Tuuli:- - NW
Ilmanpaine: 0 hPa 33088 hPa -
Sade: 0 mm    
Historical Graphs
 
 
Taulukkotiedot Helmikuu 24, 2017
Aika Lämpötila Kastepiste Ilmanpaine Tuuli Tuulen nopeus Tuulenpuuska Kosteus Sademäärä (tunneittain)
-17.8 °C -17.8 °C 0 hPa Calm     Humidity % 0 mm
00:00 -23.2 °C -23.8 °C 33088 hPa Calm     92 % 0 mm
00:15 -23 °C -23.6 °C 33088 hPa Calm   5.1 km/h 92 % 0 mm
00:30 -22.8 °C -23.4 °C 33088 hPa West 2.6 km/h 10.3 km/h 92 % 0 mm
00:45 -22.6 °C -23.3 °C 33088 hPa West 5.1 km/h 10.3 km/h 91 % 0 mm
01:00 -22.6 °C -23.2 °C 33088 hPa West 2.6 km/h 15.6 km/h 91 % 0 mm
01:15 -22.5 °C -23.2 °C 33088 hPa West 5.1 km/h 15.6 km/h 90 % 0 mm
01:30 -22.4 °C -23.2 °C 33088 hPa WNW 5.1 km/h 23.3 km/h 90 % 0 mm
01:45 -22.4 °C -23.2 °C 33088 hPa WNW 5.1 km/h 20.8 km/h 90 % 0 mm
02:00 -22.4 °C -23.1 °C 33088 hPa WNW 5.1 km/h 20.8 km/h 90 % 0 mm
02:15 -22.3 °C -23.1 °C 33088 hPa NW 5.1 km/h 15.6 km/h 90 % 0 mm
02:30 -22.3 °C -23.1 °C 33088 hPa West 7.7 km/h 23.3 km/h 90 % 0 mm
02:45 -22.3 °C -23.1 °C 33088 hPa WNW 2.6 km/h 15.6 km/h 90 % 0 mm
03:00 -22.3 °C -23.1 °C 33088 hPa West 7.7 km/h 18.2 km/h 90 % 0 mm
03:15 -22.3 °C -22.9 °C 33088 hPa West 5.1 km/h 18.2 km/h 91 % 0 mm
03:30 -22.3 °C -22.9 °C 33088 hPa WNW 10.3 km/h 20.8 km/h 91 % 0 mm
03:45 -22.3 °C -23 °C 33088 hPa WNW 10.3 km/h 20.8 km/h 90 % 0 mm
04:00 -22.3 °C -22.9 °C 33088 hPa WNW 7.7 km/h 23.3 km/h 91 % 0 mm
04:15 -22.3 °C -22.9 °C 33088 hPa WNW 7.7 km/h 18.2 km/h 91 % 0 mm
04:30 -22.3 °C -23.1 °C 33088 hPa NW 10.3 km/h 20.8 km/h 90 % 0 mm
04:45 -22.3 °C -23.1 °C 33098.2 hPa NW 7.7 km/h 18.2 km/h 90 % 0 mm
05:00 -22.3 °C -23.1 °C 33098.2 hPa NW 7.7 km/h 23.3 km/h 90 % 0 mm
05:15 -22.3 °C -23.1 °C 33098.2 hPa NW 10.3 km/h 33.6 km/h 90 % 0 mm
05:30 -22.3 °C -23.1 °C 33098.2 hPa WNW 10.3 km/h 25.9 km/h 90 % 0 mm
05:45 -22.4 °C -23.2 °C 33098.2 hPa NW 7.7 km/h 20.8 km/h 90 % 0 mm
06:00 -22.4 °C -23.2 °C 33111.7 hPa NW 7.7 km/h 20.8 km/h 90 % 0 mm
06:15 -22.6 °C -23.3 °C 33111.7 hPa NW 7.7 km/h 25.9 km/h 90 % 0 mm
06:30 -22.6 °C -23.4 °C 33111.7 hPa NW 7.7 km/h 20.8 km/h 90 % 0 mm
06:45 -22.6 °C -23.4 °C 33121.9 hPa NW 7.7 km/h 20.8 km/h 90 % 0 mm
07:00 -22.6 °C -23.3 °C 33121.9 hPa NW 10.3 km/h 23.3 km/h 90 % 0 mm
07:15 -22.7 °C -23.4 °C 33121.9 hPa NW 10.3 km/h 20.8 km/h 90 % 0 mm
07:30 -22.8 °C -23.6 °C 33121.9 hPa NW 10.3 km/h 28.5 km/h 90 % 0 mm
07:45 -22.9 °C -23.7 °C 33121.9 hPa NW 10.3 km/h 20.8 km/h 90 % 0 mm
08:00 -23 °C -23.8 °C 33121.9 hPa WNW 7.7 km/h 18.2 km/h 90 % 0 mm
08:15 -23.1 °C -23.8 °C 33135.4 hPa NW 7.7 km/h 20.8 km/h 90 % 0 mm
08:30 -23 °C -23.7 °C 33135.4 hPa WNW 5.1 km/h 15.6 km/h 91 % 0 mm
08:45 -22.9 °C -23.7 °C 33145.6 hPa WNW 7.7 km/h 23.3 km/h 90 % 0 mm
09:00 -22.9 °C -23.6 °C 33145.6 hPa NW 7.7 km/h 18.2 km/h 90 % 0 mm
09:15 -22.9 °C -23.6 °C 33145.6 hPa NW 7.7 km/h 23.3 km/h 90 % 0 mm
09:30 -22.9 °C -23.6 °C 33155.7 hPa NW 7.7 km/h 23.3 km/h 90 % 0 mm
09:45 -22.7 °C -23.4 °C 33155.7 hPa NW 10.3 km/h 20.8 km/h 91 % 0 mm
10:00 -22.4 °C -23.2 °C 33155.7 hPa NW 10.3 km/h 25.9 km/h 90 % 0 mm
10:15 -22.3 °C -23.2 °C 33155.7 hPa NW 10.3 km/h 25.9 km/h 89 % 0 mm
10:30 -22.3 °C -23.1 °C 33169.3 hPa NW 12.9 km/h 25.9 km/h 89 % 0 mm
10:45 -22.2 °C -23.1 °C 33169.3 hPa NW 12.9 km/h 31.1 km/h 88 % 0 mm
11:00 -22.2 °C -23.1 °C 33169.3 hPa NW 10.3 km/h 31.1 km/h 88 % 0 mm
11:15 -22.1 °C -23.1 °C 33179.4 hPa NW 10.3 km/h 25.9 km/h 88 % 0 mm
11:30 -22.1 °C -23 °C 33179.4 hPa NW 15.6 km/h 31.1 km/h 88 % 0 mm
11:45 -22 °C -22.9 °C 33179.4 hPa NW 12.9 km/h 25.9 km/h 88 % 0 mm
12:00 -21.9 °C -22.8 °C 33189.6 hPa NW 12.9 km/h 28.5 km/h 88 % 0 mm
12:15 -21.8 °C -22.7 °C 33189.6 hPa NW 10.3 km/h 25.9 km/h 88 % 0 mm
12:30 -21.8 °C -22.7 °C 33203.1 hPa WNW 12.9 km/h 28.5 km/h 88 % 0 mm
12:45 -21.8 °C -22.7 °C 33213.3 hPa NW 12.9 km/h 25.9 km/h 88 % 0 mm
13:00 -21.7 °C -22.7 °C 33213.3 hPa NW 7.7 km/h 25.9 km/h 88 % 0 mm
13:15 -21.7 °C -22.6 °C 33213.3 hPa NW 10.3 km/h 25.9 km/h 88 % 0 mm
13:30 -21.7 °C -22.6 °C 33226.8 hPa NW 10.3 km/h 20.8 km/h 88 % 0 mm
13:45 -21.6 °C -22.5 °C 33226.8 hPa WNW 10.3 km/h 25.9 km/h 88 % 0 mm
14:00 -21.4 °C -22.5 °C 33237 hPa NW 12.9 km/h 31.1 km/h 86 % 0 mm
14:15 -21.4 °C -22.5 °C 33237 hPa NW 12.9 km/h 41.4 km/h 86 % 0 mm
14:30 -21.4 °C -22.5 °C 33237 hPa NW 10.3 km/h 25.9 km/h 86 % 0 mm
14:45 -21.4 °C -22.5 °C 33247.1 hPa NW 12.9 km/h 28.5 km/h 86 % 0 mm
15:00 -21.5 °C -22.6 °C 33247.1 hPa NW 18.2 km/h 33.6 km/h 86 % 0 mm
15:15 -21.5 °C -22.4 °C 33260.7 hPa NW 10.3 km/h 23.3 km/h 88 % 0 mm
15:30 -21.5 °C -22.5 °C 33260.7 hPa NW 12.9 km/h 33.6 km/h 87 % 0 mm
15:45 -21.5 °C -22.4 °C 33270.8 hPa NW 10.3 km/h 25.9 km/h 88 % 0 mm
16:00 -21.5 °C -22.5 °C 33270.8 hPa NW 10.3 km/h 23.3 km/h 87 % 0 mm
16:15 -21.6 °C -22.6 °C 33284.4 hPa NW 12.9 km/h 25.9 km/h 87 % 0 mm
16:30 -21.6 °C -22.6 °C 33284.4 hPa NW 10.3 km/h 25.9 km/h 87 % 0 mm
16:45 -21.6 °C -22.6 °C 33294.5 hPa NW 12.9 km/h 28.5 km/h 87 % 0 mm
17:00 -21.7 °C -21.9 °C 33304.7 hPa NW 7.7 km/h 20.8 km/h 96 % 0 mm
17:15 -21.7 °C -22.7 °C 33318.2 hPa NNW 10.3 km/h 23.3 km/h 88 % 0 mm
17:30 -21.8 °C -22.7 °C 33318.2 hPa NNW 7.7 km/h 18.2 km/h 88 % 0 mm
17:45 -21.8 °C -22.7 °C 33328.4 hPa NW 7.7 km/h 25.9 km/h 88 % 0 mm
18:00 -21.8 °C -22.7 °C 33338.6 hPa NW 7.7 km/h 25.9 km/h 89 % 0 mm
18:15 -21.9 °C -22.7 °C 33338.6 hPa NW 7.7 km/h 20.8 km/h 89 % 0 mm
18:30 -21.9 °C -22.7 °C 33352.1 hPa NW 7.7 km/h 20.8 km/h 90 % 0 mm
18:45 -22 °C -22.8 °C 33352.1 hPa NW 7.7 km/h 20.8 km/h 89 % 0 mm
19:00 -22.1 °C -22.9 °C 33352.1 hPa NW 5.1 km/h 20.8 km/h 89 % 0 mm
19:15 -22.1 °C -22.9 °C 33362.3 hPa NW 7.7 km/h 15.6 km/h 89 % 0 mm
19:30 -22.1 °C -22.8 °C 33375.8 hPa NW 7.7 km/h 15.6 km/h 90 % 0 mm
19:45 -22.1 °C -22.8 °C 33386 hPa NW 7.7 km/h 20.8 km/h 90 % 0 mm
20:00 -22.1 °C -22.8 °C 33386 hPa NW 5.1 km/h 15.6 km/h 90 % 0 mm
20:15 -22.1 °C -22.8 °C 33396.1 hPa NW 10.3 km/h 20.8 km/h 90 % 0 mm
20:30 -22.1 °C -22.8 °C 33409.7 hPa NW 10.3 km/h 18.2 km/h 90 % 0 mm
20:45 -22.1 °C -22.8 °C 33409.7 hPa NW 7.7 km/h 15.6 km/h 90 % 0 mm
21:00 -22.1 °C -22.8 °C 33419.8 hPa NW 5.1 km/h 18.2 km/h 90 % 0 mm
21:15 -22.1 °C -22.8 °C 33419.8 hPa NW 7.7 km/h 15.6 km/h 90 % 0 mm
21:30 -22.1 °C -22.7 °C 33433.4 hPa NW 10.3 km/h 20.8 km/h 91 % 0 mm
21:45 -22.1 °C -22.7 °C 33433.4 hPa NW 7.7 km/h 15.6 km/h 91 % 0 mm
22:00 -22.1 °C -22.7 °C 33443.5 hPa NW 7.7 km/h 15.6 km/h 91 % 0 mm
22:15 -22.1 °C -22.7 °C 33443.5 hPa NW 7.7 km/h 15.6 km/h 91 % 0 mm
22:30 -22.1 °C -22.7 °C 33453.7 hPa NW 10.3 km/h 18.2 km/h 91 % 0 mm
22:45 -22.1 °C -22.7 °C 33467.2 hPa NW 10.3 km/h 18.2 km/h 91 % 0 mm
23:00 -22.1 °C -22.8 °C 33467.2 hPa NW 10.3 km/h 18.2 km/h 91 % 0 mm
23:15 -22.2 °C -22.9 °C 33477.4 hPa NW 7.7 km/h 15.6 km/h 91 % 0 mm
23:30 -22.2 °C -22.9 °C 33490.9 hPa NW 5.1 km/h 15.6 km/h 91 % 0 mm
23:45 -22.2 °C -22.9 °C 33490.9 hPa NW 7.7 km/h 12.9 km/h 91 % 0 mm
Esan sääasema
Terveisin Weather Underground - 2.75 mb

Alkuperäinen skripti  Jim McMurry - jmcmurry@mwt.net Sovitettu myös templatelle  Wim van der Kuil - Leuven-Template.eu

Laitteet joita käytämme:

Sääasema
Davis VP2

Sääasemaohjelma
Cumulus

Sääaseman tietokone
Asus EeePC

Palveluntarjoaja
Suncomet

Davis VP2

Cumulus

Asus EeePC

Suncomet